Time,TemperatureF,DewpointF,PressureIn,WindDirection,WindDirectionDegrees,WindSpeedMPH,WindSpeedGustMPH,Humidity,HourlyPrecipIn,Conditions,Clouds,dailyrainin,SoftwareType,DateUTC
2013-06-19 00:00:00,70.8,69.6,29.88,West,260,2.0,3.0,96,0.00,,---,0.73,VWS V14.01,2013-06-19 04:00:00,
2013-06-19 00:01:00,70.8,69.6,29.88,West,260,1.0,2.0,96,0.00,,---,0.00,VWS V14.01,2013-06-19 04:01:00,
2013-06-19 00:06:00,70.7,69.5,29.88,West,260,0.0,2.0,96,0.00,,---,0.00,VWS V14.01,2013-06-19 04:06:00,
2013-06-19 00:11:00,70.7,69.5,29.88,West,260,0.0,2.0,96,0.00,,---,0.00,VWS V14.01,2013-06-19 04:11:00,
2013-06-19 00:16:00,70.6,69.4,29.88,West,260,0.0,2.0,96,0.00,,---,0.00,VWS V14.01,2013-06-19 04:16:00,
2013-06-19 00:21:00,70.6,69.4,29.88,West,260,0.0,2.0,96,0.00,,---,0.00,VWS V14.01,2013-06-19 04:21:00,
2013-06-19 00:26:00,70.4,69.2,29.88,West,260,0.0,2.0,96,0.00,,---,0.00,VWS V14.01,2013-06-19 04:26:00,
2013-06-19 00:30:00,70.4,69.2,29.88,West,260,0.0,2.0,96,0.00,,---,0.00,VWS V14.01,2013-06-19 04:30:00,
2013-06-19 00:31:00,70.3,69.1,29.89,West,260,0.0,0.0,96,0.00,,---,0.00,VWS V14.01,2013-06-19 04:31:00,
2013-06-19 00:36:00,70.3,69.1,29.89,West,260,0.0,0.0,96,0.00,,---,0.00,VWS V14.01,2013-06-19 04:36:00,
2013-06-19 00:41:00,70.2,69.0,29.89,West,260,0.0,0.0,96,0.00,,---,0.00,VWS V14.01,2013-06-19 04:41:00,
2013-06-19 00:46:00,70.2,69.0,29.89,West,260,0.0,0.0,96,0.00,,---,0.00,VWS V14.01,2013-06-19 04:46:00,
2013-06-19 00:51:00,70.1,68.9,29.89,West,260,0.0,0.0,96,0.00,,---,0.00,VWS V14.01,2013-06-19 04:51:00,
2013-06-19 00:56:00,69.9,68.7,29.89,West,260,0.0,0.0,96,0.00,,---,0.00,VWS V14.01,2013-06-19 04:56:00,
2013-06-19 01:00:00,69.9,68.7,29.89,West,260,0.0,0.0,96,0.01,,---,0.01,VWS V14.01,2013-06-19 05:00:00,
2013-06-19 01:01:00,69.8,68.6,29.89,West,260,0.0,0.0,96,0.01,,---,0.01,VWS V14.01,2013-06-19 05:01:00,
2013-06-19 01:06:00,70.0,68.8,29.89,West,260,0.0,0.0,96,0.01,,---,0.01,VWS V14.01,2013-06-19 05:06:00,
2013-06-19 01:11:00,70.0,68.8,29.88,West,260,0.0,0.0,96,0.01,,---,0.01,VWS V14.01,2013-06-19 05:11:00,
2013-06-19 01:16:00,69.9,68.7,29.88,West,260,0.0,0.0,96,0.01,,---,0.01,VWS V14.01,2013-06-19 05:16:00,
2013-06-19 01:21:00,69.9,68.7,29.88,West,260,0.0,0.0,96,0.01,,---,0.01,VWS V14.01,2013-06-19 05:21:00,
2013-06-19 01:26:00,69.9,68.7,29.88,West,260,0.0,0.0,96,0.01,,---,0.01,VWS V14.01,2013-06-19 05:26:00,
2013-06-19 01:30:00,69.8,68.6,29.88,West,260,0.0,0.0,96,0.01,,---,0.01,VWS V14.01,2013-06-19 05:30:00,
2013-06-19 01:31:00,69.8,68.6,29.88,West,260,0.0,0.0,96,0.01,,---,0.01,VWS V14.01,2013-06-19 05:31:00,
2013-06-19 01:36:00,69.8,68.6,29.88,West,260,0.0,0.0,96,0.01,,---,0.01,VWS V14.01,2013-06-19 05:36:00,
2013-06-19 01:41:00,69.7,68.5,29.88,West,260,0.0,0.0,96,0.01,,---,0.01,VWS V14.01,2013-06-19 05:41:00,
2013-06-19 01:46:00,69.5,68.3,29.88,West,260,0.0,0.0,96,0.01,,---,0.01,VWS V14.01,2013-06-19 05:46:00,
2013-06-19 01:51:00,69.5,68.3,29.88,West,260,0.0,0.0,96,0.01,,---,0.01,VWS V14.01,2013-06-19 05:51:00,
2013-06-19 01:56:00,69.4,68.2,29.88,West,260,0.0,0.0,96,0.01,,---,0.01,VWS V14.01,2013-06-19 05:56:00,
2013-06-19 02:00:00,69.3,68.1,29.88,West,260,0.0,0.0,96,0.01,,---,0.01,VWS V14.01,2013-06-19 06:00:00,
2013-06-19 02:01:00,69.3,68.1,29.88,West,260,0.0,0.0,96,0.00,,---,0.01,VWS V14.01,2013-06-19 06:01:00,
2013-06-19 02:06:00,69.1,67.9,29.88,West,260,0.0,0.0,96,0.00,,---,0.01,VWS V14.01,2013-06-19 06:06:00,
2013-06-19 02:11:00,69.1,67.9,29.88,West,260,0.0,0.0,96,0.00,,---,0.01,VWS V14.01,2013-06-19 06:11:00,
2013-06-19 02:16:00,69.1,67.9,29.89,West,260,0.0,0.0,96,0.00,,---,0.01,VWS V14.01,2013-06-19 06:16:00,
2013-06-19 02:21:00,69.1,67.9,29.89,West,260,0.0,0.0,96,0.00,,---,0.01,VWS V14.01,2013-06-19 06:21:00,
2013-06-19 02:26:00,69.3,68.1,29.89,West,260,0.0,0.0,96,0.00,,---,0.01,VWS V14.01,2013-06-19 06:26:00,
2013-06-19 02:30:00,69.4,68.2,29.89,West,260,0.0,1.0,96,0.00,,---,0.01,VWS V14.01,2013-06-19 06:30:00,
2013-06-19 02:31:00,69.4,68.2,29.88,West,260,0.0,1.0,96,0.00,,---,0.01,VWS V14.01,2013-06-19 06:31:00,
2013-06-19 02:36:00,69.5,68.3,29.89,West,260,0.0,1.0,96,0.00,,---,0.01,VWS V14.01,2013-06-19 06:36:00,
2013-06-19 02:41:00,69.5,68.3,29.89,West,260,0.0,1.0,96,0.00,,---,0.01,VWS V14.01,2013-06-19 06:41:00,
2013-06-19 02:46:00,69.4,68.2,29.88,West,260,0.0,1.0,96,0.00,,---,0.01,VWS V14.01,2013-06-19 06:46:00,
2013-06-19 02:51:00,69.3,68.1,29.88,West,260,0.0,1.0,96,0.00,,---,0.01,VWS V14.01,2013-06-19 06:51:00,
2013-06-19 02:56:00,69.2,68.0,29.88,West,260,0.0,1.0,96,0.00,,---,0.01,VWS V14.01,2013-06-19 06:56:00,
2013-06-19 03:00:00,69.1,67.9,29.88,West,260,0.0,1.0,96,0.00,,---,0.01,VWS V14.01,2013-06-19 07:00:00,
2013-06-19 03:01:00,69.1,67.9,29.88,West,260,0.0,0.0,96,0.00,,---,0.01,VWS V14.01,2013-06-19 07:01:00,
2013-06-19 03:06:00,69.1,67.9,29.88,West,260,0.0,0.0,96,0.00,,---,0.01,VWS V14.01,2013-06-19 07:06:00,
2013-06-19 03:10:00,69.0,67.8,29.88,West,260,0.0,0.0,96,0.00,,---,0.01,VWS V14.01,2013-06-19 07:10:00,
2013-06-19 03:15:00,68.9,67.7,29.88,West,260,0.0,0.0,96,0.00,,---,0.01,VWS V14.01,2013-06-19 07:15:00,
2013-06-19 03:20:00,68.9,67.7,29.89,West,260,0.0,0.0,96,0.00,,---,0.01,VWS V14.01,2013-06-19 07:20:00,
2013-06-19 03:25:00,68.9,67.7,29.89,West,260,0.0,0.0,96,0.00,,---,0.01,VWS V14.01,2013-06-19 07:25:00,
2013-06-19 03:30:00,68.8,67.6,29.89,West,260,0.0,0.0,96,0.00,,---,0.01,VWS V14.01,2013-06-19 07:30:00,
2013-06-19 03:35:00,68.7,67.5,29.89,West,260,0.0,0.0,96,0.00,,---,0.01,VWS V14.01,2013-06-19 07:35:00,
2013-06-19 03:40:00,68.7,67.5,29.89,West,260,0.0,0.0,96,0.00,,---,0.01,VWS V14.01,2013-06-19 07:40:00,
2013-06-19 03:45:00,68.7,67.5,29.89,West,260,0.0,0.0,96,0.00,,---,0.01,VWS V14.01,2013-06-19 07:45:00,
2013-06-19 03:50:00,68.7,67.5,29.89,West,260,0.0,0.0,96,0.00,,---,0.01,VWS V14.01,2013-06-19 07:50:00,
2013-06-19 03:55:00,68.8,67.6,29.89,West,260,0.0,0.0,96,0.00,,---,0.01,VWS V14.01,2013-06-19 07:55:00,
2013-06-19 04:00:00,68.7,67.5,29.89,West,260,0.0,0.0,96,0.00,,---,0.01,VWS V14.01,2013-06-19 08:00:00,
2013-06-19 04:05:00,68.7,67.5,29.89,West,260,0.0,0.0,96,0.00,,---,0.01,VWS V14.01,2013-06-19 08:05:00,
2013-06-19 04:10:00,68.7,67.5,29.89,West,260,0.0,0.0,96,0.00,,---,0.01,VWS V14.01,2013-06-19 08:10:00,
2013-06-19 04:15:00,68.7,67.5,29.89,West,260,0.0,0.0,96,0.00,,---,0.01,VWS V14.01,2013-06-19 08:15:00,
2013-06-19 04:20:00,68.8,67.6,29.89,West,260,0.0,0.0,96,0.00,,---,0.01,VWS V14.01,2013-06-19 08:20:00,
2013-06-19 04:25:00,68.8,67.6,29.90,West,260,0.0,0.0,96,0.00,,---,0.01,VWS V14.01,2013-06-19 08:25:00,
2013-06-19 04:30:00,68.8,67.6,29.89,West,260,0.0,0.0,96,0.00,,---,0.01,VWS V14.01,2013-06-19 08:30:00,
2013-06-19 04:35:00,68.7,67.5,29.89,West,260,0.0,0.0,96,0.00,,---,0.01,VWS V14.01,2013-06-19 08:35:00,
2013-06-19 04:40:00,68.7,67.5,29.89,West,260,0.0,0.0,96,0.00,,---,0.01,VWS V14.01,2013-06-19 08:40:00,
2013-06-19 04:45:00,68.7,67.5,29.89,West,260,0.0,0.0,96,0.00,,---,0.01,VWS V14.01,2013-06-19 08:45:00,
2013-06-19 04:50:00,68.8,67.6,29.89,West,260,0.0,0.0,96,0.00,,---,0.01,VWS V14.01,2013-06-19 08:50:00,
2013-06-19 04:55:00,68.8,67.6,29.89,West,260,0.0,0.0,96,0.00,,---,0.01,VWS V14.01,2013-06-19 08:55:00,
2013-06-19 05:00:00,68.7,67.5,29.89,West,260,0.0,0.0,96,0.00,,---,0.01,VWS V14.01,2013-06-19 09:00:00,
2013-06-19 05:05:00,68.7,67.5,29.89,West,260,0.0,0.0,96,0.00,,---,0.01,VWS V14.01,2013-06-19 09:05:00,
2013-06-19 05:10:00,68.7,67.5,29.89,West,260,0.0,0.0,96,0.00,,---,0.01,VWS V14.01,2013-06-19 09:10:00,
2013-06-19 05:15:00,68.7,67.5,29.89,West,260,0.0,2.0,96,0.00,,---,0.01,VWS V14.01,2013-06-19 09:15:00,
2013-06-19 05:20:00,68.7,67.5,29.89,West,260,0.0,2.0,96,0.00,,---,0.01,VWS V14.01,2013-06-19 09:20:00,
2013-06-19 05:25:00,68.7,67.5,29.90,West,260,2.0,2.0,96,0.00,,---,0.01,VWS V14.01,2013-06-19 09:25:00,
2013-06-19 05:30:00,68.7,67.5,29.90,West,260,0.0,2.0,96,0.00,,---,0.01,VWS V14.01,2013-06-19 09:30:00,
2013-06-19 05:33:00,68.7,67.5,29.90,West,260,0.0,0.0,96,0.00,,---,0.01,VWS V14.01,2013-06-19 09:33:00,
2013-06-19 05:38:00,68.7,67.5,29.90,West,260,0.0,0.0,96,0.00,,---,0.01,VWS V14.01,2013-06-19 09:38:00,
2013-06-19 05:43:00,68.7,67.5,29.90,West,260,0.0,0.0,96,0.00,,---,0.01,VWS V14.01,2013-06-19 09:43:00,
2013-06-19 05:48:00,68.7,67.5,29.90,West,260,0.0,0.0,96,0.00,,---,0.01,VWS V14.01,2013-06-19 09:48:00,
2013-06-19 05:53:00,68.7,67.5,29.90,West,260,0.0,0.0,96,0.00,,---,0.01,VWS V14.01,2013-06-19 09:53:00,
2013-06-19 05:58:00,68.6,67.4,29.91,West,260,0.0,0.0,96,0.00,,---,0.01,VWS V14.01,2013-06-19 09:58:00,
2013-06-19 06:00:00,68.6,67.4,29.91,West,260,0.0,0.0,96,0.00,,---,0.01,VWS V14.01,2013-06-19 10:00:00,
2013-06-19 06:03:00,68.5,67.6,29.91,West,260,0.0,0.0,97,0.00,,---,0.01,VWS V14.01,2013-06-19 10:03:00,
2013-06-19 06:08:00,68.4,67.5,29.91,West,260,0.0,0.0,97,0.00,,---,0.01,VWS V14.01,2013-06-19 10:08:00,
2013-06-19 06:13:00,68.2,67.0,29.91,West,260,0.0,0.0,96,0.00,,---,0.01,VWS V14.01,2013-06-19 10:13:00,
2013-06-19 06:18:00,68.1,66.9,29.91,West,260,0.0,0.0,96,0.00,,---,0.01,VWS V14.01,2013-06-19 10:18:00,
2013-06-19 06:23:00,67.9,66.7,29.92,West,260,0.0,0.0,96,0.00,,---,0.01,VWS V14.01,2013-06-19 10:23:00,
2013-06-19 06:28:00,67.9,66.7,29.92,West,260,0.0,0.0,96,0.00,,---,0.01,VWS V14.01,2013-06-19 10:28:00,
2013-06-19 06:30:00,67.8,66.6,29.92,West,260,0.0,0.0,96,0.00,,---,0.01,VWS V14.01,2013-06-19 10:30:00,
2013-06-19 06:33:00,67.8,66.6,29.92,West,260,0.0,0.0,96,0.00,,---,0.01,VWS V14.01,2013-06-19 10:33:00,
2013-06-19 07:03:00,67.8,66.6,29.92,West,260,0.0,0.0,96,0.00,,---,0.01,VWS V14.01,2013-06-19 11:03:00,
2013-06-19 07:08:00,68.1,66.9,29.93,West,260,0.0,1.0,96,0.00,,---,0.01,VWS V14.01,2013-06-19 11:08:00,
2013-06-19 07:13:00,68.2,67.0,29.94,West,260,0.0,1.0,96,0.00,,---,0.01,VWS V14.01,2013-06-19 11:13:00,
2013-06-19 07:18:00,68.3,67.4,29.94,West,260,0.0,1.0,97,0.00,,---,0.01,VWS V14.01,2013-06-19 11:18:00,
2013-06-19 07:23:00,68.6,67.7,29.94,West,260,0.0,2.0,97,0.00,,---,0.01,VWS V14.01,2013-06-19 11:23:00,
2013-06-19 07:29:00,69.5,68.6,29.94,West,260,0.0,2.0,97,0.00,,---,0.01,VWS V14.01,2013-06-19 11:29:00,
2013-06-19 07:30:00,69.6,68.7,29.94,West,260,0.0,2.0,97,0.00,,---,0.01,VWS V14.01,2013-06-19 11:30:00,
2013-06-19 07:34:00,69.7,68.8,29.94,West,260,0.0,3.0,97,0.00,,---,0.01,VWS V14.01,2013-06-19 11:34:00,
2013-06-19 07:39:00,69.8,68.9,29.94,West,260,0.0,3.0,97,0.00,,---,0.01,VWS V14.01,2013-06-19 11:39:00,
2013-06-19 07:44:00,70.0,69.1,29.95,West,260,0.0,3.0,97,0.00,,---,0.01,VWS V14.01,2013-06-19 11:44:00,
2013-06-19 07:49:00,70.3,69.4,29.95,West,260,0.0,3.0,97,0.00,,---,0.01,VWS V14.01,2013-06-19 11:49:00,
2013-06-19 07:54:00,70.5,69.6,29.95,West,260,0.0,3.0,97,0.00,,---,0.01,VWS V14.01,2013-06-19 11:54:00,
2013-06-19 08:05:00,70.5,69.6,29.95,West,260,0.0,3.0,97,0.00,,---,0.01,VWS V14.01,2013-06-19 12:05:00,
2013-06-19 08:10:00,70.7,69.5,29.95,West,260,3.0,4.0,96,0.00,,---,0.01,VWS V14.01,2013-06-19 12:10:00,
2013-06-19 08:15:00,70.9,69.7,29.95,West,260,3.0,4.0,96,0.00,,---,0.01,VWS V14.01,2013-06-19 12:15:00,
2013-06-19 08:20:00,71.2,70.0,29.96,West,260,2.0,4.0,96,0.00,,---,0.01,VWS V14.01,2013-06-19 12:20:00,
2013-06-19 08:24:00,71.5,70.3,29.96,West,272,1.0,6.0,96,0.00,,---,0.01,VWS V14.01,2013-06-19 12:24:00,
2013-06-19 08:29:00,72.1,70.9,29.96,WNW,292,3.0,6.0,96,0.00,,---,0.01,VWS V14.01,2013-06-19 12:29:00,
2013-06-19 08:30:00,72.1,70.9,29.96,WNW,292,4.0,6.0,96,0.00,,---,0.01,VWS V14.01,2013-06-19 12:30:00,
2013-06-19 08:34:00,72.6,71.4,29.96,WNW,292,1.0,4.0,96,0.00,,---,0.01,VWS V14.01,2013-06-19 12:34:00,
2013-06-19 09:06:00,72.6,71.1,29.96,WNW,295,5.0,5.0,95,0.00,,---,0.01,VWS V14.01,2013-06-19 13:06:00,
2013-06-19 09:11:00,74.6,70.8,29.97,NNE,29,6.0,10.0,88,0.00,,---,0.01,VWS V14.01,2013-06-19 13:11:00,
2013-06-19 09:16:00,74.1,70.3,29.97,NNE,31,4.0,13.0,88,0.00,,---,0.01,VWS V14.01,2013-06-19 13:16:00,
2013-06-19 09:21:00,74.1,70.3,29.97,NNE,33,6.0,13.0,88,0.00,,---,0.01,VWS V14.01,2013-06-19 13:21:00,
2013-06-19 09:26:00,73.9,70.1,29.97,NNE,30,3.0,13.0,88,0.00,,---,0.01,VWS V14.01,2013-06-19 13:26:00,
2013-06-19 09:30:00,74.0,70.2,29.97,NNE,28,6.0,13.0,88,0.00,,---,0.01,VWS V14.01,2013-06-19 13:30:00,
2013-06-19 09:31:00,73.9,69.8,29.97,NNE,28,10.0,11.0,87,0.00,,---,0.01,VWS V14.01,2013-06-19 13:31:00,
2013-06-19 09:36:00,73.8,69.7,29.97,NNE,26,3.0,11.0,87,0.00,,---,0.01,VWS V14.01,2013-06-19 13:36:00,
2013-06-19 09:37:00,73.9,69.8,29.97,NNE,26,4.0,11.0,87,0.00,,---,0.01,VWS V14.01,2013-06-19 13:37:00,
2013-06-19 10:08:00,74.7,68.8,29.97,NE,42,4.0,11.0,82,0.00,,---,0.01,VWS V14.01,2013-06-19 14:08:00,
2013-06-19 10:13:00,74.8,68.9,29.97,NNE,30,6.0,11.0,82,0.00,,---,0.01,VWS V14.01,2013-06-19 14:13:00,
2013-06-19 10:18:00,75.0,68.8,29.97,NNE,24,7.0,11.0,81,0.00,,---,0.01,VWS V14.01,2013-06-19 14:18:00,
2013-06-19 10:23:00,75.2,68.6,29.97,NNE,25,4.0,11.0,80,0.00,,---,0.01,VWS V14.01,2013-06-19 14:23:00,
2013-06-19 10:28:00,75.2,69.0,29.97,NE,39,5.0,11.0,81,0.00,,---,0.01,VWS V14.01,2013-06-19 14:28:00,
2013-06-19 10:30:00,75.2,68.2,29.97,NE,53,8.0,11.0,79,0.00,,---,0.01,VWS V14.01,2013-06-19 14:30:00,
2013-06-19 10:33:00,75.2,68.6,29.98,NE,46,2.0,8.0,80,0.00,,---,0.01,VWS V14.01,2013-06-19 14:33:00,
2013-06-19 10:38:00,75.7,69.8,29.98,NE,46,3.0,8.0,82,0.00,,---,0.01,VWS V14.01,2013-06-19 14:38:00,
2013-06-19 10:41:00,76.2,69.6,29.98,NE,46,2.0,8.0,80,0.00,,---,0.01,VWS V14.01,2013-06-19 14:41:00,
2013-06-19 12:12:00,76.2,69.6,29.98,NE,46,2.0,8.0,80,0.00,,---,0.01,VWS V14.01,2013-06-19 16:12:00,
2013-06-19 12:17:00,76.8,69.1,30.00,NNE,29,10.0,10.0,77,0.00,,---,0.01,VWS V14.01,2013-06-19 16:17:00,
2013-06-19 12:22:00,76.6,69.2,30.00,NE,34,5.0,12.0,78,0.00,,---,0.01,VWS V14.01,2013-06-19 16:22:00,
2013-06-19 12:27:00,76.6,69.2,30.00,NE,35,7.0,13.0,78,0.00,,---,0.01,VWS V14.01,2013-06-19 16:27:00,
2013-06-19 12:30:00,76.9,69.9,30.00,NE,34,8.0,13.0,79,0.00,,---,0.01,VWS V14.01,2013-06-19 16:30:00,
2013-06-19 12:32:00,77.0,69.6,30.00,NE,44,10.0,11.0,78,0.00,,---,0.01,VWS V14.01,2013-06-19 16:32:00,
2013-06-19 12:37:00,76.8,69.4,30.00,NE,36,7.0,13.0,78,0.00,,---,0.01,VWS V14.01,2013-06-19 16:37:00,
2013-06-19 12:42:00,77.1,69.7,30.00,NE,36,4.0,13.0,78,0.00,,---,0.01,VWS V14.01,2013-06-19 16:42:00,
2013-06-19 13:14:00,77.0,69.6,30.00,NE,36,4.0,13.0,78,0.00,,---,0.01,VWS V14.01,2013-06-19 17:14:00,
2013-06-19 13:19:00,77.1,69.7,30.00,NE,52,4.0,13.0,78,0.00,,---,0.01,VWS V14.01,2013-06-19 17:19:00,
2013-06-19 13:24:00,77.5,70.1,30.00,NE,41,4.0,13.0,78,0.00,,---,0.01,VWS V14.01,2013-06-19 17:24:00,
2013-06-19 13:29:00,77.9,70.1,30.00,NE,34,5.0,13.0,77,0.00,,---,0.01,VWS V14.01,2013-06-19 17:29:00,
2013-06-19 13:30:00,78.1,69.9,30.00,NE,34,3.0,13.0,76,0.00,,---,0.01,VWS V14.01,2013-06-19 17:30:00,
2013-06-19 13:34:00,78.4,70.6,30.01,NNE,31,7.0,9.0,77,0.00,,---,0.01,VWS V14.01,2013-06-19 17:34:00,
2013-06-19 13:39:00,78.3,70.1,30.00,NNE,31,4.0,9.0,76,0.00,,---,0.01,VWS V14.01,2013-06-19 17:39:00,
2013-06-19 13:44:00,78.6,70.8,30.00,NNE,31,6.0,9.0,77,0.00,,---,0.01,VWS V14.01,2013-06-19 17:44:00,
2013-06-19 14:16:00,78.6,71.2,30.00,NNE,31,5.0,9.0,78,0.00,,---,0.01,VWS V14.01,2013-06-19 18:16:00,
2013-06-19 14:21:00,78.0,69.8,29.99,NE,42,7.0,10.0,76,0.00,,---,0.01,VWS V14.01,2013-06-19 18:21:00,
2013-06-19 14:26:00,78.5,71.4,29.99,NE,36,8.0,11.0,79,0.00,,---,0.01,VWS V14.01,2013-06-19 18:26:00,
2013-06-19 14:30:00,78.5,70.3,29.99,NE,44,3.0,11.0,76,0.00,,---,0.01,VWS V14.01,2013-06-19 18:30:00,
2013-06-19 14:31:00,78.5,69.5,29.99,NE,48,6.0,6.0,74,0.00,,---,0.01,VWS V14.01,2013-06-19 18:31:00,
2013-06-19 14:36:00,78.5,69.5,29.99,NE,36,2.0,10.0,74,0.00,,---,0.01,VWS V14.01,2013-06-19 18:36:00,
2013-06-19 14:41:00,79.0,70.4,29.99,NE,34,7.0,10.0,75,0.00,,---,0.01,VWS V14.01,2013-06-19 18:41:00,
2013-06-19 14:46:00,78.9,70.3,29.98,NE,43,3.0,10.0,75,0.00,,---,0.01,VWS V14.01,2013-06-19 18:46:00,
2013-06-19 14:51:00,78.7,70.5,29.98,NE,41,4.0,10.0,76,0.00,,---,0.01,VWS V14.01,2013-06-19 18:51:00,
2013-06-19 14:56:00,79.0,70.4,29.98,NE,41,3.0,10.0,75,0.00,,---,0.01,VWS V14.01,2013-06-19 18:56:00,
2013-06-19 15:00:00,79.7,71.1,29.98,NE,40,5.0,10.0,75,0.00,,---,0.01,VWS V14.01,2013-06-19 19:00:00,
2013-06-19 15:01:00,79.7,70.3,29.98,NE,38,5.0,6.0,73,0.00,,---,0.01,VWS V14.01,2013-06-19 19:01:00,
2013-06-19 15:06:00,80.0,71.0,29.98,NE,38,0.0,6.0,74,0.00,,---,0.01,VWS V14.01,2013-06-19 19:06:00,
2013-06-19 15:11:00,79.9,70.9,29.98,NE,38,5.0,7.0,74,0.00,,---,0.01,VWS V14.01,2013-06-19 19:11:00,
2013-06-19 15:16:00,79.4,71.2,29.98,NE,38,3.0,7.0,76,0.00,,---,0.01,VWS V14.01,2013-06-19 19:16:00,
2013-06-19 15:21:00,79.1,70.5,29.98,NE,38,5.0,7.0,75,0.00,,---,0.01,VWS V14.01,2013-06-19 19:21:00,
2013-06-19 15:26:00,78.9,71.1,29.98,NE,37,0.0,7.0,77,0.00,,---,0.01,VWS V14.01,2013-06-19 19:26:00,
2013-06-19 15:30:00,79.1,70.5,29.98,NE,38,4.0,7.0,75,0.00,,---,0.01,VWS V14.01,2013-06-19 19:30:00,
2013-06-19 15:31:00,79.2,70.6,29.98,NE,38,3.0,5.0,75,0.00,,---,0.01,VWS V14.01,2013-06-19 19:31:00,
2013-06-19 15:36:00,79.6,70.6,29.98,NE,38,2.0,6.0,74,0.00,,---,0.01,VWS V14.01,2013-06-19 19:36:00,
2013-06-19 15:41:00,79.7,70.3,29.98,NE,36,4.0,7.0,73,0.00,,---,0.01,VWS V14.01,2013-06-19 19:41:00,
2013-06-19 15:46:00,79.4,70.4,29.98,NE,36,5.0,7.0,74,0.00,,---,0.01,VWS V14.01,2013-06-19 19:46:00,
2013-06-19 15:51:00,79.4,70.4,29.98,NE,36,4.0,7.0,74,0.00,,---,0.01,VWS V14.01,2013-06-19 19:51:00,
2013-06-19 15:56:00,79.5,70.5,29.98,NE,36,1.0,7.0,74,0.00,,---,0.01,VWS V14.01,2013-06-19 19:56:00,
2013-06-19 16:00:00,79.8,71.2,29.98,NE,36,2.0,7.0,75,0.00,,---,0.01,VWS V14.01,2013-06-19 20:00:00,
2013-06-19 16:01:00,79.9,71.3,29.98,NE,36,0.0,3.0,75,0.00,,---,0.01,VWS V14.01,2013-06-19 20:01:00,
2013-06-19 16:06:00,80.1,70.7,29.98,NE,36,4.0,6.0,73,0.00,,---,0.01,VWS V14.01,2013-06-19 20:06:00,
2013-06-19 16:11:00,80.5,71.5,29.98,NE,36,2.0,6.0,74,0.00,,---,0.01,VWS V14.01,2013-06-19 20:11:00,
2013-06-19 16:16:00,80.6,70.8,29.98,NE,36,2.0,6.0,72,0.00,,---,0.01,VWS V14.01,2013-06-19 20:16:00,
2013-06-19 16:21:00,80.5,72.2,29.98,NE,36,0.0,6.0,76,0.00,,---,0.01,VWS V14.01,2013-06-19 20:21:00,
2013-06-19 16:26:00,80.6,72.3,29.98,NE,36,3.0,6.0,76,0.00,,---,0.01,VWS V14.01,2013-06-19 20:26:00,
2013-06-19 16:30:00,80.5,71.1,29.98,NE,36,6.0,7.0,73,0.00,,---,0.01,VWS V14.01,2013-06-19 20:30:00,
2013-06-19 16:31:00,80.5,70.7,29.98,NE,36,7.0,8.0,72,0.00,,---,0.01,VWS V14.01,2013-06-19 20:31:00,
2013-06-19 16:36:00,80.0,70.6,29.98,NE,36,1.0,8.0,73,0.00,,---,0.01,VWS V14.01,2013-06-19 20:36:00,
2013-06-19 16:41:00,80.1,70.7,29.98,NE,36,0.0,8.0,73,0.00,,---,0.01,VWS V14.01,2013-06-19 20:41:00,
2013-06-19 16:46:00,80.8,71.3,29.98,NE,36,0.0,8.0,73,0.00,,---,0.01,VWS V14.01,2013-06-19 20:46:00,
2013-06-19 16:51:00,80.6,70.3,29.98,NE,36,3.0,9.0,71,0.00,,---,0.01,VWS V14.01,2013-06-19 20:51:00,
2013-06-19 16:55:00,80.4,71.0,29.98,NE,36,1.0,9.0,73,0.00,,---,0.01,VWS V14.01,2013-06-19 20:55:00,
2013-06-19 17:00:00,80.4,70.6,29.98,NE,40,3.0,4.0,72,0.00,,---,0.01,VWS V14.01,2013-06-19 21:00:00,
2013-06-19 17:05:00,80.1,70.7,29.98,NE,38,0.0,9.0,73,0.00,,---,0.01,VWS V14.01,2013-06-19 21:05:00,
2013-06-19 17:07:00,80.2,71.2,29.98,NE,38,3.0,9.0,74,0.00,,---,0.01,VWS V14.01,2013-06-19 21:07:00,
2013-06-19 17:22:00,80.2,71.2,29.98,NE,38,3.0,9.0,74,0.00,,---,0.01,VWS V14.01,2013-06-19 21:22:00,
2013-06-19 17:27:00,81.6,71.3,29.98,NE,35,4.0,9.0,71,0.00,,---,0.01,VWS V14.01,2013-06-19 21:27:00,
2013-06-19 17:30:00,81.5,71.6,29.98,NE,35,4.0,9.0,72,0.00,,---,0.01,VWS V14.01,2013-06-19 21:30:00,
2013-06-19 17:32:00,81.3,71.0,29.98,NE,35,1.0,4.0,71,0.00,,---,0.01,VWS V14.01,2013-06-19 21:32:00,
2013-06-19 17:37:00,81.1,70.4,29.98,NNE,33,5.0,10.0,70,0.00,,---,0.01,VWS V14.01,2013-06-19 21:37:00,
2013-06-19 17:42:00,81.1,71.2,29.98,NNE,33,3.0,10.0,72,0.00,,---,0.01,VWS V14.01,2013-06-19 21:42:00,
2013-06-19 17:47:00,81.1,70.8,29.98,NNE,32,0.0,10.0,71,0.00,,---,0.01,VWS V14.01,2013-06-19 21:47:00,
2013-06-19 17:52:00,81.1,71.2,29.98,NNE,32,0.0,10.0,72,0.00,,---,0.01,VWS V14.01,2013-06-19 21:52:00,
2013-06-19 18:24:00,81.2,71.7,29.98,NNE,32,2.0,10.0,73,0.00,,---,0.01,VWS V14.01,2013-06-19 22:24:00,
2013-06-19 18:29:00,80.8,70.9,29.98,NE,37,3.0,10.0,72,0.00,,---,0.01,VWS V14.01,2013-06-19 22:29:00,
2013-06-19 18:30:00,80.8,70.9,29.98,NE,37,3.0,10.0,72,0.00,,---,0.01,VWS V14.01,2013-06-19 22:30:00,
2013-06-19 18:34:00,80.9,71.4,29.98,NE,37,8.0,8.0,73,0.00,,---,0.01,VWS V14.01,2013-06-19 22:34:00,
2013-06-19 18:39:00,80.8,71.3,29.98,NE,37,5.0,8.0,73,0.00,,---,0.01,VWS V14.01,2013-06-19 22:39:00,
2013-06-19 18:44:00,80.8,71.3,29.98,NE,50,5.0,8.0,73,0.00,,---,0.01,VWS V14.01,2013-06-19 22:44:00,
2013-06-19 18:49:00,80.6,71.6,29.98,NE,50,3.0,8.0,74,0.00,,---,0.01,VWS V14.01,2013-06-19 22:49:00,
2013-06-19 18:54:00,80.6,71.6,29.98,NE,49,1.0,8.0,74,0.00,,---,0.01,VWS V14.01,2013-06-19 22:54:00,
2013-06-19 18:59:00,80.8,70.9,29.99,NE,51,2.0,8.0,72,0.00,,---,0.01,VWS V14.01,2013-06-19 22:59:00,
2013-06-19 19:00:00,80.7,70.8,29.99,NE,50,2.0,8.0,72,0.00,,---,0.01,VWS V14.01,2013-06-19 23:00:00,
2013-06-19 19:04:00,80.6,71.2,29.99,NE,50,2.0,5.0,73,0.00,,---,0.01,VWS V14.01,2013-06-19 23:04:00,
2013-06-19 19:09:00,80.5,71.1,29.99,NE,51,0.0,5.0,73,0.00,,---,0.01,VWS V14.01,2013-06-19 23:09:00,
2013-06-19 19:14:00,80.5,71.1,29.99,NE,50,3.0,6.0,73,0.00,,---,0.01,VWS V14.01,2013-06-19 23:14:00,
2013-06-19 19:19:00,80.5,71.1,29.99,NE,50,3.0,6.0,73,0.00,,---,0.01,VWS V14.01,2013-06-19 23:19:00,
2013-06-19 19:24:00,80.6,71.9,29.99,NE,50,3.0,6.0,75,0.00,,---,0.01,VWS V14.01,2013-06-19 23:24:00,
2013-06-19 19:29:00,80.4,70.6,29.99,NE,50,4.0,6.0,72,0.00,,---,0.01,VWS V14.01,2013-06-19 23:29:00,
2013-06-19 19:30:00,80.4,70.6,29.99,NE,49,3.0,6.0,72,0.00,,---,0.01,VWS V14.01,2013-06-19 23:30:00,
2013-06-19 19:34:00,80.3,70.9,29.99,NE,50,1.0,4.0,73,0.00,,---,0.01,VWS V14.01,2013-06-19 23:34:00,
2013-06-19 19:39:00,80.3,70.9,30.00,NE,50,3.0,5.0,73,0.00,,---,0.01,VWS V14.01,2013-06-19 23:39:00,
2013-06-19 19:44:00,80.2,70.8,30.00,NE,50,2.0,5.0,73,0.00,,---,0.01,VWS V14.01,2013-06-19 23:44:00,
2013-06-19 19:49:00,80.3,71.3,30.00,NE,50,4.0,5.0,74,0.00,,---,0.01,VWS V14.01,2013-06-19 23:49:00,
2013-06-19 19:54:00,80.2,71.2,30.00,NE,50,2.0,5.0,74,0.00,,---,0.01,VWS V14.01,2013-06-19 23:54:00,
2013-06-19 19:59:00,79.9,70.9,30.00,NE,50,0.0,5.0,74,0.00,,---,0.01,VWS V14.01,2013-06-19 23:59:00,
2013-06-19 20:00:00,79.9,70.9,30.00,NE,49,0.0,5.0,74,0.00,,---,0.01,VWS V14.01,2013-06-20 00:00:00,
2013-06-19 20:04:00,79.8,70.8,30.00,NE,49,0.0,0.0,74,0.00,,---,0.01,VWS V14.01,2013-06-20 00:04:00,
2013-06-19 21:30:00,73.2,70.1,30.02,NE,50,0.0,2.0,90,0.00,,---,0.01,VWS V14.01,2013-06-20 01:30:00,
2013-06-19 21:31:00,79.5,70.5,30.00,NE,50,2.0,2.0,74,0.00,,---,0.01,VWS V14.01,2013-06-20 01:31:00,
2013-06-19 21:36:00,73.1,70.3,30.02,NE,49,0.0,0.0,91,0.00,,---,0.01,VWS V14.01,2013-06-20 01:36:00,
2013-06-19 21:41:00,72.9,70.1,30.03,NE,49,0.0,0.0,91,0.00,,---,0.01,VWS V14.01,2013-06-20 01:41:00,
2013-06-19 21:46:00,72.7,69.9,30.03,NE,50,0.0,0.0,91,0.00,,---,0.01,VWS V14.01,2013-06-20 01:46:00,
2013-06-19 21:51:00,72.6,69.8,30.03,NE,50,0.0,0.0,91,0.00,,---,0.01,VWS V14.01,2013-06-20 01:51:00,
2013-06-19 21:56:00,72.4,69.9,30.03,NE,50,0.0,0.0,92,0.00,,---,0.01,VWS V14.01,2013-06-20 01:56:00,
2013-06-19 22:00:00,72.3,69.8,30.04,NE,50,0.0,1.0,92,0.00,,---,0.01,VWS V14.01,2013-06-20 02:00:00,
2013-06-19 22:01:00,72.3,69.8,30.04,NE,50,0.0,0.0,92,0.00,,---,0.01,VWS V14.01,2013-06-20 02:01:00,
2013-06-19 22:06:00,72.2,69.8,30.04,NE,49,2.0,2.0,92,0.00,,---,0.01,VWS V14.01,2013-06-20 02:06:00,
2013-06-19 22:11:00,72.0,69.9,30.04,NE,49,0.0,3.0,93,0.00,,---,0.01,VWS V14.01,2013-06-20 02:11:00,
2013-06-19 22:16:00,71.9,69.8,30.04,NE,50,0.0,3.0,93,0.00,,---,0.01,VWS V14.01,2013-06-20 02:16:00,
2013-06-19 22:20:00,71.7,69.6,30.05,NE,50,1.0,3.0,93,0.00,,---,0.01,VWS V14.01,2013-06-20 02:20:00,
2013-06-19 22:33:00,71.6,69.5,30.05,NE,49,0.0,3.0,93,0.00,,---,0.01,VWS V14.01,2013-06-20 02:33:00,
2013-06-19 22:38:00,71.4,69.3,30.05,NE,50,0.0,3.0,93,0.00,,---,0.01,VWS V14.01,2013-06-20 02:38:00,
2013-06-19 22:43:00,71.4,69.3,30.05,NE,50,0.0,3.0,93,0.00,,---,0.01,VWS V14.01,2013-06-20 02:43:00,
2013-06-19 22:48:00,71.3,69.2,30.05,NE,49,0.0,3.0,93,0.00,,---,0.01,VWS V14.01,2013-06-20 02:48:00,
2013-06-19 22:53:00,71.3,69.2,30.06,NE,49,0.0,3.0,93,0.00,,---,0.01,VWS V14.01,2013-06-20 02:53:00,
2013-06-19 22:58:00,71.2,69.4,30.06,NE,50,0.0,3.0,94,0.00,,---,0.01,VWS V14.01,2013-06-20 02:58:00,
2013-06-19 23:00:00,71.2,69.1,30.06,NE,50,0.0,3.0,93,0.00,,---,0.01,VWS V14.01,2013-06-20 03:00:00,
2013-06-19 23:03:00,71.1,69.0,30.06,NE,50,0.0,1.0,93,0.00,,---,0.01,VWS V14.01,2013-06-20 03:03:00,
2013-06-19 23:35:00,71.1,69.0,30.06,NE,50,0.0,1.0,93,0.00,,---,0.01,VWS V14.01,2013-06-20 03:35:00,
2013-06-19 23:40:00,70.4,68.6,30.07,NE,50,0.0,3.0,94,0.00,,---,0.01,VWS V14.01,2013-06-20 03:40:00,
2013-06-19 23:45:00,70.4,68.6,30.07,NE,50,0.0,3.0,94,0.00,,---,0.01,VWS V14.01,2013-06-20 03:45:00,
2013-06-19 23:50:00,70.3,68.5,30.07,NE,50,0.0,3.0,94,0.00,,---,0.01,VWS V14.01,2013-06-20 03:50:00,
2013-06-19 23:55:00,70.4,68.6,30.07,NE,50,0.0,3.0,94,0.00,,---,0.01,VWS V14.01,2013-06-20 03:55:00,